sensor_id;sensor_type;location;lat;lon;timestamp;temperature;humidity
3308;DHT22;1666;48.898;9.182;2024-01-07T00:00:45;4.90;99.90
3308;DHT22;1666;48.898;9.182;2024-01-07T00:03:19;4.90;99.90
3308;DHT22;1666;48.898;9.182;2024-01-07T00:05:50;4.90;99.90
3308;DHT22;1666;48.898;9.182;2024-01-07T00:08:21;4.90;99.90
3308;DHT22;1666;48.898;9.182;2024-01-07T00:10:51;4.90;99.90
3308;DHT22;1666;48.898;9.182;2024-01-07T00:13:23;4.80;99.90
3308;DHT22;1666;48.898;9.182;2024-01-07T00:15:54;4.90;99.90
3308;DHT22;1666;48.898;9.182;2024-01-07T00:18:28;4.90;99.90
3308;DHT22;1666;48.898;9.182;2024-01-07T00:20:58;4.90;99.90
3308;DHT22;1666;48.898;9.182;2024-01-07T00:23:29;4.90;99.90
3308;DHT22;1666;48.898;9.182;2024-01-07T00:26:00;4.90;99.90
3308;DHT22;1666;48.898;9.182;2024-01-07T00:28:31;4.90;99.90
3308;DHT22;1666;48.898;9.182;2024-01-07T00:31:02;4.90;99.90
3308;DHT22;1666;48.898;9.182;2024-01-07T00:33:39;4.90;99.90
3308;DHT22;1666;48.898;9.182;2024-01-07T00:36:09;4.90;99.90
3308;DHT22;1666;48.898;9.182;2024-01-07T00:38:39;4.90;99.90
3308;DHT22;1666;48.898;9.182;2024-01-07T00:41:09;4.90;99.90
3308;DHT22;1666;48.898;9.182;2024-01-07T00:43:40;4.90;99.90
3308;DHT22;1666;48.898;9.182;2024-01-07T00:46:10;4.90;99.90
3308;DHT22;1666;48.898;9.182;2024-01-07T00:48:42;4.90;99.90
3308;DHT22;1666;48.898;9.182;2024-01-07T00:51:13;4.90;99.90
3308;DHT22;1666;48.898;9.182;2024-01-07T00:53:43;4.90;99.90
3308;DHT22;1666;48.898;9.182;2024-01-07T00:56:12;5.00;99.90
3308;DHT22;1666;48.898;9.182;2024-01-07T00:58:42;4.90;99.90
3308;DHT22;1666;48.898;9.182;2024-01-07T01:01:12;4.90;99.90
3308;DHT22;1666;48.898;9.182;2024-01-07T01:03:45;4.90;99.90
3308;DHT22;1666;48.898;9.182;2024-01-07T01:06:15;5.00;99.90
3308;DHT22;1666;48.898;9.182;2024-01-07T01:08:45;4.90;99.90
3308;DHT22;1666;48.898;9.182;2024-01-07T01:11:16;4.90;99.90
3308;DHT22;1666;48.898;9.182;2024-01-07T01:13:47;4.90;99.90
3308;DHT22;1666;48.898;9.182;2024-01-07T01:16:17;4.90;99.90
3308;DHT22;1666;48.898;9.182;2024-01-07T01:18:54;4.90;99.90
3308;DHT22;1666;48.898;9.182;2024-01-07T01:21:24;4.90;99.90
3308;DHT22;1666;48.898;9.182;2024-01-07T01:23:54;4.90;99.90
3308;DHT22;1666;48.898;9.182;2024-01-07T01:26:25;4.90;99.90
3308;DHT22;1666;48.898;9.182;2024-01-07T01:28:55;4.90;99.90
3308;DHT22;1666;48.898;9.182;2024-01-07T01:31:25;4.90;99.90
3308;DHT22;1666;48.898;9.182;2024-01-07T01:33:57;4.90;99.90
3308;DHT22;1666;48.898;9.182;2024-01-07T01:36:28;5.00;99.90
3308;DHT22;1666;48.898;9.182;2024-01-07T01:39:00;5.00;99.90
3308;DHT22;1666;48.898;9.182;2024-01-07T01:41:30;5.00;99.90
3308;DHT22;1666;48.898;9.182;2024-01-07T01:44:01;4.90;99.90
3308;DHT22;1666;48.898;9.182;2024-01-07T01:46:31;4.90;99.90
3308;DHT22;1666;48.898;9.182;2024-01-07T01:49:04;4.90;99.90
3308;DHT22;1666;48.898;9.182;2024-01-07T01:51:35;4.90;99.90
3308;DHT22;1666;48.898;9.182;2024-01-07T01:54:06;4.90;99.90
3308;DHT22;1666;48.898;9.182;2024-01-07T01:56:36;4.90;99.90
3308;DHT22;1666;48.898;9.182;2024-01-07T01:59:06;4.90;99.90
3308;DHT22;1666;48.898;9.182;2024-01-07T02:01:37;4.90;99.90
3308;DHT22;1666;48.898;9.182;2024-01-07T02:04:11;4.90;99.90
3308;DHT22;1666;48.898;9.182;2024-01-07T02:06:41;4.90;99.90
3308;DHT22;1666;48.898;9.182;2024-01-07T02:09:11;4.90;99.90
3308;DHT22;1666;48.898;9.182;2024-01-07T02:11:42;4.90;99.90
3308;DHT22;1666;48.898;9.182;2024-01-07T02:14:12;4.90;99.90
3308;DHT22;1666;48.898;9.182;2024-01-07T02:16:42;4.90;99.90
3308;DHT22;1666;48.898;9.182;2024-01-07T02:19:14;4.90;99.90
3308;DHT22;1666;48.898;9.182;2024-01-07T02:21:45;4.90;99.90
3308;DHT22;1666;48.898;9.182;2024-01-07T02:24:18;4.90;99.90
3308;DHT22;1666;48.898;9.182;2024-01-07T02:26:48;4.90;99.90
3308;DHT22;1666;48.898;9.182;2024-01-07T02:29:18;4.90;99.90
3308;DHT22;1666;48.898;9.182;2024-01-07T02:31:48;4.90;99.90
3308;DHT22;1666;48.898;9.182;2024-01-07T02:34:18;4.90;99.90
3308;DHT22;1666;48.898;9.182;2024-01-07T02:36:48;4.90;99.90
3308;DHT22;1666;48.898;9.182;2024-01-07T02:39:21;4.90;99.90
3308;DHT22;1666;48.898;9.182;2024-01-07T02:41:51;4.80;99.90
3308;DHT22;1666;48.898;9.182;2024-01-07T02:44:21;4.80;99.90
3308;DHT22;1666;48.898;9.182;2024-01-07T02:46:52;4.80;99.90
3308;DHT22;1666;48.898;9.182;2024-01-07T02:49:22;4.80;99.90
3308;DHT22;1666;48.898;9.182;2024-01-07T02:51:52;4.80;99.90
3308;DHT22;1666;48.898;9.182;2024-01-07T02:54:24;4.80;99.90
3308;DHT22;1666;48.898;9.182;2024-01-07T02:56:55;4.70;99.90
3308;DHT22;1666;48.898;9.182;2024-01-07T02:59:25;4.80;99.90
3308;DHT22;1666;48.898;9.182;2024-01-07T03:01:55;4.80;99.90
3308;DHT22;1666;48.898;9.182;2024-01-07T03:04:25;4.80;99.90
3308;DHT22;1666;48.898;9.182;2024-01-07T03:06:55;4.80;99.90
3308;DHT22;1666;48.898;9.182;2024-01-07T03:09:27;4.70;99.90
3308;DHT22;1666;48.898;9.182;2024-01-07T03:11:57;4.80;99.90
3308;DHT22;1666;48.898;9.182;2024-01-07T03:14:27;4.80;99.90
3308;DHT22;1666;48.898;9.182;2024-01-07T03:16:57;4.70;99.90
3308;DHT22;1666;48.898;9.182;2024-01-07T03:19:27;4.70;99.90
3308;DHT22;1666;48.898;9.182;2024-01-07T03:21:57;4.70;99.90
3308;DHT22;1666;48.898;9.182;2024-01-07T03:24:30;4.80;99.90
3308;DHT22;1666;48.898;9.182;2024-01-07T03:27:00;4.80;99.90
3308;DHT22;1666;48.898;9.182;2024-01-07T03:29:30;4.70;99.90
3308;DHT22;1666;48.898;9.182;2024-01-07T03:32:00;4.70;99.90
3308;DHT22;1666;48.898;9.182;2024-01-07T03:34:30;4.70;99.90
3308;DHT22;1666;48.898;9.182;2024-01-07T03:37:00;4.70;99.90
3308;DHT22;1666;48.898;9.182;2024-01-07T03:39:35;4.70;99.90
3308;DHT22;1666;48.898;9.182;2024-01-07T03:42:05;4.70;99.90
3308;DHT22;1666;48.898;9.182;2024-01-07T03:44:39;4.70;99.90
3308;DHT22;1666;48.898;9.182;2024-01-07T03:47:09;4.60;99.90
3308;DHT22;1666;48.898;9.182;2024-01-07T03:49:39;4.60;99.90
3308;DHT22;1666;48.898;9.182;2024-01-07T03:52:09;4.60;99.90
3308;DHT22;1666;48.898;9.182;2024-01-07T03:54:41;4.60;99.90
3308;DHT22;1666;48.898;9.182;2024-01-07T03:57:12;4.60;99.90
3308;DHT22;1666;48.898;9.182;2024-01-07T03:59:42;4.60;99.90
3308;DHT22;1666;48.898;9.182;2024-01-07T04:02:12;4.50;99.90
3308;DHT22;1666;48.898;9.182;2024-01-07T04:04:43;4.50;99.90
3308;DHT22;1666;48.898;9.182;2024-01-07T04:07:13;4.50;99.90
3308;DHT22;1666;48.898;9.182;2024-01-07T04:09:46;4.50;99.90
3308;DHT22;1666;48.898;9.182;2024-01-07T04:12:16;4.50;99.90
3308;DHT22;1666;48.898;9.182;2024-01-07T04:14:46;4.40;99.90
3308;DHT22;1666;48.898;9.182;2024-01-07T04:17:16;4.40;99.90
3308;DHT22;1666;48.898;9.182;2024-01-07T04:19:46;4.40;99.90
3308;DHT22;1666;48.898;9.182;2024-01-07T04:22:16;4.40;99.90
3308;DHT22;1666;48.898;9.182;2024-01-07T04:24:48;4.40;99.90
3308;DHT22;1666;48.898;9.182;2024-01-07T04:27:19;4.40;99.90
3308;DHT22;1666;48.898;9.182;2024-01-07T04:29:48;4.40;99.90
3308;DHT22;1666;48.898;9.182;2024-01-07T04:32:19;4.30;99.90
3308;DHT22;1666;48.898;9.182;2024-01-07T04:34:49;4.40;99.90
3308;DHT22;1666;48.898;9.182;2024-01-07T04:37:20;4.40;99.90
3308;DHT22;1666;48.898;9.182;2024-01-07T04:39:53;4.40;99.90
3308;DHT22;1666;48.898;9.182;2024-01-07T04:42:24;4.40;99.90
3308;DHT22;1666;48.898;9.182;2024-01-07T04:44:55;4.40;99.90
3308;DHT22;1666;48.898;9.182;2024-01-07T04:47:26;4.40;99.90
3308;DHT22;1666;48.898;9.182;2024-01-07T04:49:57;4.40;99.90
3308;DHT22;1666;48.898;9.182;2024-01-07T04:52:28;4.40;99.90
3308;DHT22;1666;48.898;9.182;2024-01-07T04:55:01;4.40;99.90
3308;DHT22;1666;48.898;9.182;2024-01-07T04:57:32;4.40;99.90
3308;DHT22;1666;48.898;9.182;2024-01-07T05:00:05;4.40;99.90
3308;DHT22;1666;48.898;9.182;2024-01-07T05:02:35;4.40;99.90
3308;DHT22;1666;48.898;9.182;2024-01-07T05:05:07;4.40;99.90
3308;DHT22;1666;48.898;9.182;2024-01-07T05:07:37;4.40;99.90
3308;DHT22;1666;48.898;9.182;2024-01-07T05:10:10;4.40;99.90
3308;DHT22;1666;48.898;9.182;2024-01-07T05:12:41;4.30;99.90
3308;DHT22;1666;48.898;9.182;2024-01-07T05:15:11;4.40;99.90
3308;DHT22;1666;48.898;9.182;2024-01-07T05:17:42;4.40;99.90
3308;DHT22;1666;48.898;9.182;2024-01-07T05:20:12;4.40;99.90
3308;DHT22;1666;48.898;9.182;2024-01-07T05:22:44;4.40;99.90
3308;DHT22;1666;48.898;9.182;2024-01-07T05:25:17;4.30;99.90
3308;DHT22;1666;48.898;9.182;2024-01-07T05:27:47;4.40;99.90
3308;DHT22;1666;48.898;9.182;2024-01-07T05:30:17;4.30;99.90
3308;DHT22;1666;48.898;9.182;2024-01-07T05:32:47;4.30;99.90
3308;DHT22;1666;48.898;9.182;2024-01-07T05:35:17;4.30;99.90
3308;DHT22;1666;48.898;9.182;2024-01-07T05:37:47;4.30;99.90
3308;DHT22;1666;48.898;9.182;2024-01-07T05:40:20;4.30;99.90
3308;DHT22;1666;48.898;9.182;2024-01-07T05:42:50;4.30;99.90
3308;DHT22;1666;48.898;9.182;2024-01-07T05:45:20;4.30;99.90
3308;DHT22;1666;48.898;9.182;2024-01-07T05:47:50;4.30;99.90
3308;DHT22;1666;48.898;9.182;2024-01-07T05:50:20;4.30;99.90
3308;DHT22;1666;48.898;9.182;2024-01-07T05:52:50;4.40;99.90
3308;DHT22;1666;48.898;9.182;2024-01-07T05:55:22;4.30;99.90
3308;DHT22;1666;48.898;9.182;2024-01-07T05:57:52;4.30;99.90
3308;DHT22;1666;48.898;9.182;2024-01-07T06:00:22;4.30;99.90
3308;DHT22;1666;48.898;9.182;2024-01-07T06:02:53;4.30;99.90
3308;DHT22;1666;48.898;9.182;2024-01-07T06:05:23;4.30;99.90
3308;DHT22;1666;48.898;9.182;2024-01-07T06:07:53;4.30;99.90
3308;DHT22;1666;48.898;9.182;2024-01-07T06:10:25;4.30;99.90
3308;DHT22;1666;48.898;9.182;2024-01-07T06:12:55;4.30;99.90
3308;DHT22;1666;48.898;9.182;2024-01-07T06:15:25;4.30;99.90
3308;DHT22;1666;48.898;9.182;2024-01-07T06:17:55;4.30;99.90
3308;DHT22;1666;48.898;9.182;2024-01-07T06:20:25;4.30;99.90
3308;DHT22;1666;48.898;9.182;2024-01-07T06:22:55;4.30;98.10
3308;DHT22;1666;48.898;9.182;2024-01-07T06:25:28;4.30;92.30
3308;DHT22;1666;48.898;9.182;2024-01-07T06:27:58;4.30;90.20
3308;DHT22;1666;48.898;9.182;2024-01-07T06:30:28;4.30;85.50
3308;DHT22;1666;48.898;9.182;2024-01-07T06:32:58;4.30;56.80
3308;DHT22;1666;48.898;9.182;2024-01-07T06:35:29;4.30;28.90
3308;DHT22;1666;48.898;9.182;2024-01-07T06:37:59;4.30;18.20
3308;DHT22;1666;48.898;9.182;2024-01-07T06:40:31;4.30;1.90
3308;DHT22;1666;48.898;9.182;2024-01-07T06:43:01;4.30;1.00
3308;DHT22;1666;48.898;9.182;2024-01-07T06:45:32;4.30;1.00
3308;DHT22;1666;48.898;9.182;2024-01-07T06:48:02;4.30;1.00
3308;DHT22;1666;48.898;9.182;2024-01-07T06:50:32;4.30;1.00
3308;DHT22;1666;48.898;9.182;2024-01-07T06:53:02;4.30;1.00
3308;DHT22;1666;48.898;9.182;2024-01-07T06:55:34;4.30;1.00
3308;DHT22;1666;48.898;9.182;2024-01-07T06:58:05;4.30;1.00
3308;DHT22;1666;48.898;9.182;2024-01-07T07:00:35;4.30;1.00
3308;DHT22;1666;48.898;9.182;2024-01-07T07:03:06;4.20;1.00
3308;DHT22;1666;48.898;9.182;2024-01-07T07:05:36;4.20;1.00
3308;DHT22;1666;48.898;9.182;2024-01-07T07:08:06;4.10;1.00
3308;DHT22;1666;48.898;9.182;2024-01-07T07:10:39;4.10;1.00
3308;DHT22;1666;48.898;9.182;2024-01-07T07:13:09;4.10;1.00
3308;DHT22;1666;48.898;9.182;2024-01-07T07:15:39;4.10;1.00
3308;DHT22;1666;48.898;9.182;2024-01-07T07:18:09;4.10;1.00
3308;DHT22;1666;48.898;9.182;2024-01-07T07:20:40;4.10;1.00
3308;DHT22;1666;48.898;9.182;2024-01-07T07:23:10;4.00;1.00
3308;DHT22;1666;48.898;9.182;2024-01-07T07:25:43;4.00;1.00
3308;DHT22;1666;48.898;9.182;2024-01-07T07:28:13;4.00;1.00
3308;DHT22;1666;48.898;9.182;2024-01-07T07:30:44;4.00;1.00
3308;DHT22;1666;48.898;9.182;2024-01-07T07:33:18;4.00;1.00
3308;DHT22;1666;48.898;9.182;2024-01-07T07:35:48;4.00;1.00
3308;DHT22;1666;48.898;9.182;2024-01-07T07:38:18;4.00;1.00
3308;DHT22;1666;48.898;9.182;2024-01-07T07:40:51;4.00;1.00
3308;DHT22;1666;48.898;9.182;2024-01-07T07:43:22;4.00;1.00
3308;DHT22;1666;48.898;9.182;2024-01-07T07:45:52;4.00;1.00
3308;DHT22;1666;48.898;9.182;2024-01-07T07:48:22;4.00;1.00
3308;DHT22;1666;48.898;9.182;2024-01-07T07:50:53;4.00;1.00
3308;DHT22;1666;48.898;9.182;2024-01-07T07:53:23;4.00;1.00
3308;DHT22;1666;48.898;9.182;2024-01-07T07:55:56;4.00;1.00
3308;DHT22;1666;48.898;9.182;2024-01-07T07:58:27;3.90;1.00
3308;DHT22;1666;48.898;9.182;2024-01-07T08:00:57;4.00;1.00
3308;DHT22;1666;48.898;9.182;2024-01-07T08:03:27;3.90;1.00
3308;DHT22;1666;48.898;9.182;2024-01-07T08:05:58;3.90;1.00
3308;DHT22;1666;48.898;9.182;2024-01-07T08:08:28;3.90;1.00
3308;DHT22;1666;48.898;9.182;2024-01-07T08:11:01;3.90;1.00
3308;DHT22;1666;48.898;9.182;2024-01-07T08:13:34;3.90;1.00
3308;DHT22;1666;48.898;9.182;2024-01-07T08:16:05;3.90;1.00
3308;DHT22;1666;48.898;9.182;2024-01-07T08:18:37;3.90;1.00
3308;DHT22;1666;48.898;9.182;2024-01-07T08:21:08;3.90;1.00
3308;DHT22;1666;48.898;9.182;2024-01-07T08:23:39;3.90;1.00
3308;DHT22;1666;48.898;9.182;2024-01-07T08:26:12;3.90;1.00
3308;DHT22;1666;48.898;9.182;2024-01-07T08:28:43;3.90;1.00
3308;DHT22;1666;48.898;9.182;2024-01-07T08:31:13;3.80;1.00
3308;DHT22;1666;48.898;9.182;2024-01-07T08:33:43;3.80;1.00
3308;DHT22;1666;48.898;9.182;2024-01-07T08:36:13;3.80;1.00
3308;DHT22;1666;48.898;9.182;2024-01-07T08:38:43;3.80;1.00
3308;DHT22;1666;48.898;9.182;2024-01-07T08:41:18;3.80;1.00
3308;DHT22;1666;48.898;9.182;2024-01-07T08:43:48;3.90;1.00
3308;DHT22;1666;48.898;9.182;2024-01-07T08:46:20;3.80;1.00
3308;DHT22;1666;48.898;9.182;2024-01-07T08:48:50;3.90;1.00
3308;DHT22;1666;48.898;9.182;2024-01-07T08:51:20;3.90;1.00
3308;DHT22;1666;48.898;9.182;2024-01-07T08:53:50;3.80;1.00
3308;DHT22;1666;48.898;9.182;2024-01-07T08:56:23;3.80;1.00
3308;DHT22;1666;48.898;9.182;2024-01-07T08:58:53;3.80;1.00
3308;DHT22;1666;48.898;9.182;2024-01-07T09:01:23;3.90;1.00
3308;DHT22;1666;48.898;9.182;2024-01-07T09:03:53;3.80;1.00
3308;DHT22;1666;48.898;9.182;2024-01-07T09:06:24;3.80;1.00
3308;DHT22;1666;48.898;9.182;2024-01-07T09:08:54;3.80;1.00
3308;DHT22;1666;48.898;9.182;2024-01-07T09:11:26;3.70;1.00
3308;DHT22;1666;48.898;9.182;2024-01-07T09:13:56;3.70;1.00
3308;DHT22;1666;48.898;9.182;2024-01-07T09:16:26;3.70;1.00
3308;DHT22;1666;48.898;9.182;2024-01-07T09:18:56;3.70;1.00
3308;DHT22;1666;48.898;9.182;2024-01-07T09:21:27;3.70;1.00
3308;DHT22;1666;48.898;9.182;2024-01-07T09:23:57;3.70;1.00
3308;DHT22;1666;48.898;9.182;2024-01-07T09:26:29;3.70;1.00
3308;DHT22;1666;48.898;9.182;2024-01-07T09:28:59;3.70;1.00
3308;DHT22;1666;48.898;9.182;2024-01-07T09:31:30;3.70;1.00
3308;DHT22;1666;48.898;9.182;2024-01-07T09:34:00;3.60;1.00
3308;DHT22;1666;48.898;9.182;2024-01-07T09:36:34;3.70;1.00
3308;DHT22;1666;48.898;9.182;2024-01-07T09:39:06;3.60;1.00
3308;DHT22;1666;48.898;9.182;2024-01-07T09:41:40;3.50;1.00
3308;DHT22;1666;48.898;9.182;2024-01-07T09:44:12;3.50;1.00
3308;DHT22;1666;48.898;9.182;2024-01-07T09:46:45;3.60;1.00
3308;DHT22;1666;48.898;9.182;2024-01-07T09:49:19;3.50;1.00
3308;DHT22;1666;48.898;9.182;2024-01-07T09:51:53;3.50;1.00
3308;DHT22;1666;48.898;9.182;2024-01-07T09:54:28;3.50;1.00
3308;DHT22;1666;48.898;9.182;2024-01-07T09:57:04;3.60;1.00
3308;DHT22;1666;48.898;9.182;2024-01-07T09:59:37;3.50;1.00
3308;DHT22;1666;48.898;9.182;2024-01-07T10:02:08;3.40;1.00
3308;DHT22;1666;48.898;9.182;2024-01-07T10:04:40;3.40;1.00
3308;DHT22;1666;48.898;9.182;2024-01-07T10:07:13;3.50;1.00
3308;DHT22;1666;48.898;9.182;2024-01-07T10:09:44;3.60;1.00
3308;DHT22;1666;48.898;9.182;2024-01-07T10:12:22;3.50;1.00
3308;DHT22;1666;48.898;9.182;2024-01-07T10:14:54;3.40;1.00
3308;DHT22;1666;48.898;9.182;2024-01-07T10:17:28;3.50;1.00
3308;DHT22;1666;48.898;9.182;2024-01-07T10:19:58;3.40;1.00
3308;DHT22;1666;48.898;9.182;2024-01-07T10:22:29;3.50;1.00
3308;DHT22;1666;48.898;9.182;2024-01-07T10:25:00;3.50;1.00
3308;DHT22;1666;48.898;9.182;2024-01-07T10:27:34;3.50;1.00
3308;DHT22;1666;48.898;9.182;2024-01-07T10:30:06;3.50;1.00
3308;DHT22;1666;48.898;9.182;2024-01-07T10:32:37;3.60;1.00
3308;DHT22;1666;48.898;9.182;2024-01-07T10:35:13;3.50;1.00
3308;DHT22;1666;48.898;9.182;2024-01-07T10:37:44;3.60;1.00
3308;DHT22;1666;48.898;9.182;2024-01-07T10:40:15;3.50;1.00
3308;DHT22;1666;48.898;9.182;2024-01-07T10:42:49;3.60;1.00
3308;DHT22;1666;48.898;9.182;2024-01-07T10:45:21;3.60;1.00
3308;DHT22;1666;48.898;9.182;2024-01-07T10:47:55;3.80;1.00
3308;DHT22;1666;48.898;9.182;2024-01-07T10:50:31;3.60;1.00
3308;DHT22;1666;48.898;9.182;2024-01-07T10:53:04;3.50;1.00
3308;DHT22;1666;48.898;9.182;2024-01-07T10:55:39;3.50;1.00
3308;DHT22;1666;48.898;9.182;2024-01-07T10:58:15;3.50;1.00
3308;DHT22;1666;48.898;9.182;2024-01-07T11:00:46;3.50;1.00
3308;DHT22;1666;48.898;9.182;2024-01-07T11:03:23;3.50;1.00
3308;DHT22;1666;48.898;9.182;2024-01-07T11:05:59;3.30;1.00
3308;DHT22;1666;48.898;9.182;2024-01-07T11:08:36;3.30;1.00
3308;DHT22;1666;48.898;9.182;2024-01-07T11:11:13;3.30;1.00
3308;DHT22;1666;48.898;9.182;2024-01-07T11:13:48;3.20;1.00
3308;DHT22;1666;48.898;9.182;2024-01-07T11:16:41;3.20;1.00
3308;DHT22;1666;48.898;9.182;2024-01-07T11:19:13;3.20;1.00
3308;DHT22;1666;48.898;9.182;2024-01-07T11:21:45;3.20;1.00
3308;DHT22;1666;48.898;9.182;2024-01-07T11:24:40;3.30;1.00
3308;DHT22;1666;48.898;9.182;2024-01-07T11:27:10;3.20;1.00
3308;DHT22;1666;48.898;9.182;2024-01-07T11:29:44;3.20;1.00
3308;DHT22;1666;48.898;9.182;2024-01-07T11:32:17;3.30;1.00
3308;DHT22;1666;48.898;9.182;2024-01-07T11:34:49;3.20;1.00
3308;DHT22;1666;48.898;9.182;2024-01-07T11:37:21;3.10;1.00
3308;DHT22;1666;48.898;9.182;2024-01-07T11:39:55;3.10;1.00
3308;DHT22;1666;48.898;9.182;2024-01-07T11:42:26;3.10;1.00
3308;DHT22;1666;48.898;9.182;2024-01-07T11:45:00;3.10;1.00
3308;DHT22;1666;48.898;9.182;2024-01-07T11:47:31;3.20;1.00
3308;DHT22;1666;48.898;9.182;2024-01-07T11:50:01;3.00;1.00
3308;DHT22;1666;48.898;9.182;2024-01-07T11:52:33;2.90;1.00
3308;DHT22;1666;48.898;9.182;2024-01-07T11:55:06;2.80;1.00
3308;DHT22;1666;48.898;9.182;2024-01-07T11:57:38;2.80;1.00
3308;DHT22;1666;48.898;9.182;2024-01-07T12:00:13;2.70;1.00
3308;DHT22;1666;48.898;9.182;2024-01-07T12:02:48;2.70;1.00
3308;DHT22;1666;48.898;9.182;2024-01-07T12:05:22;2.80;1.00
3308;DHT22;1666;48.898;9.182;2024-01-07T12:07:53;2.70;1.00
3308;DHT22;1666;48.898;9.182;2024-01-07T12:10:24;2.70;1.00
3308;DHT22;1666;48.898;9.182;2024-01-07T12:12:55;2.60;1.00
3308;DHT22;1666;48.898;9.182;2024-01-07T12:15:29;2.60;1.00
3308;DHT22;1666;48.898;9.182;2024-01-07T12:18:00;2.70;1.00
3308;DHT22;1666;48.898;9.182;2024-01-07T12:20:31;2.60;1.00
3308;DHT22;1666;48.898;9.182;2024-01-07T12:23:06;2.60;1.00
3308;DHT22;1666;48.898;9.182;2024-01-07T12:25:38;2.60;1.00
3308;DHT22;1666;48.898;9.182;2024-01-07T12:28:09;2.50;1.00
3308;DHT22;1666;48.898;9.182;2024-01-07T12:30:42;2.50;1.00
3308;DHT22;1666;48.898;9.182;2024-01-07T12:33:16;2.40;1.00
3308;DHT22;1666;48.898;9.182;2024-01-07T12:35:48;2.50;1.00
3308;DHT22;1666;48.898;9.182;2024-01-07T12:38:23;2.50;1.00
3308;DHT22;1666;48.898;9.182;2024-01-07T12:40:57;2.40;1.00
3308;DHT22;1666;48.898;9.182;2024-01-07T12:43:28;2.40;1.00
3308;DHT22;1666;48.898;9.182;2024-01-07T12:46:02;2.50;1.00
3308;DHT22;1666;48.898;9.182;2024-01-07T12:48:33;2.50;1.00
3308;DHT22;1666;48.898;9.182;2024-01-07T12:51:05;2.40;1.00
3308;DHT22;1666;48.898;9.182;2024-01-07T12:53:37;2.30;1.00
3308;DHT22;1666;48.898;9.182;2024-01-07T12:56:07;2.30;1.00
3308;DHT22;1666;48.898;9.182;2024-01-07T12:58:38;2.30;1.00
3308;DHT22;1666;48.898;9.182;2024-01-07T13:01:11;2.10;1.00
3308;DHT22;1666;48.898;9.182;2024-01-07T13:03:43;2.20;1.00
3308;DHT22;1666;48.898;9.182;2024-01-07T13:06:15;2.10;1.00
3308;DHT22;1666;48.898;9.182;2024-01-07T13:08:46;2.10;1.00
3308;DHT22;1666;48.898;9.182;2024-01-07T13:11:20;2.00;1.00
3308;DHT22;1666;48.898;9.182;2024-01-07T13:13:51;2.10;1.00
3308;DHT22;1666;48.898;9.182;2024-01-07T13:16:25;2.10;1.00
3308;DHT22;1666;48.898;9.182;2024-01-07T13:18:55;2.00;1.00
3308;DHT22;1666;48.898;9.182;2024-01-07T13:21:25;2.00;1.00
3308;DHT22;1666;48.898;9.182;2024-01-07T13:23:56;2.10;1.00
3308;DHT22;1666;48.898;9.182;2024-01-07T13:26:28;2.10;1.00
3308;DHT22;1666;48.898;9.182;2024-01-07T13:28:58;2.10;1.00
3308;DHT22;1666;48.898;9.182;2024-01-07T13:31:30;2.00;1.00
3308;DHT22;1666;48.898;9.182;2024-01-07T13:34:00;2.00;1.00
3308;DHT22;1666;48.898;9.182;2024-01-07T13:36:31;1.90;1.00
3308;DHT22;1666;48.898;9.182;2024-01-07T13:39:01;2.00;1.00
3308;DHT22;1666;48.898;9.182;2024-01-07T13:41:34;1.90;1.00
3308;DHT22;1666;48.898;9.182;2024-01-07T13:44:04;1.90;1.00
3308;DHT22;1666;48.898;9.182;2024-01-07T13:46:37;1.90;1.00
3308;DHT22;1666;48.898;9.182;2024-01-07T13:49:09;1.90;1.00
3308;DHT22;1666;48.898;9.182;2024-01-07T13:51:39;1.80;1.00
3308;DHT22;1666;48.898;9.182;2024-01-07T13:54:09;1.80;1.00
3308;DHT22;1666;48.898;9.182;2024-01-07T13:56:41;1.80;1.00
3308;DHT22;1666;48.898;9.182;2024-01-07T13:59:11;1.80;1.00
3308;DHT22;1666;48.898;9.182;2024-01-07T14:01:47;1.70;1.00
3308;DHT22;1666;48.898;9.182;2024-01-07T14:04:17;1.70;1.00
3308;DHT22;1666;48.898;9.182;2024-01-07T14:06:48;1.70;1.00
3308;DHT22;1666;48.898;9.182;2024-01-07T14:09:18;1.70;1.00
3308;DHT22;1666;48.898;9.182;2024-01-07T14:11:48;1.70;1.00
3308;DHT22;1666;48.898;9.182;2024-01-07T14:14:18;1.70;1.00
3308;DHT22;1666;48.898;9.182;2024-01-07T14:16:51;1.70;1.00
3308;DHT22;1666;48.898;9.182;2024-01-07T14:19:21;1.60;1.00
3308;DHT22;1666;48.898;9.182;2024-01-07T14:21:51;1.60;1.00
3308;DHT22;1666;48.898;9.182;2024-01-07T14:24:23;1.60;1.00
3308;DHT22;1666;48.898;9.182;2024-01-07T14:26:53;1.60;1.00
3308;DHT22;1666;48.898;9.182;2024-01-07T14:29:25;1.60;1.00
3308;DHT22;1666;48.898;9.182;2024-01-07T14:31:57;1.50;1.00
3308;DHT22;1666;48.898;9.182;2024-01-07T14:34:31;1.50;1.00
3308;DHT22;1666;48.898;9.182;2024-01-07T14:37:01;1.50;1.00
3308;DHT22;1666;48.898;9.182;2024-01-07T14:39:31;1.50;1.00
3308;DHT22;1666;48.898;9.182;2024-01-07T14:42:02;1.40;1.00
3308;DHT22;1666;48.898;9.182;2024-01-07T14:44:32;1.30;1.00
3308;DHT22;1666;48.898;9.182;2024-01-07T14:47:19;1.30;1.00
3308;DHT22;1666;48.898;9.182;2024-01-07T14:49:49;1.40;1.00
3308;DHT22;1666;48.898;9.182;2024-01-07T14:52:19;1.30;1.00
3308;DHT22;1666;48.898;9.182;2024-01-07T14:54:49;1.30;1.00
3308;DHT22;1666;48.898;9.182;2024-01-07T14:57:19;1.40;1.00
3308;DHT22;1666;48.898;9.182;2024-01-07T14:59:49;1.40;1.00
3308;DHT22;1666;48.898;9.182;2024-01-07T15:02:22;1.50;1.00
3308;DHT22;1666;48.898;9.182;2024-01-07T15:04:52;1.40;1.00
3308;DHT22;1666;48.898;9.182;2024-01-07T15:07:23;1.40;1.00
3308;DHT22;1666;48.898;9.182;2024-01-07T15:09:53;1.40;1.00
3308;DHT22;1666;48.898;9.182;2024-01-07T15:12:23;1.40;1.00
3308;DHT22;1666;48.898;9.182;2024-01-07T15:15:03;1.30;1.00
3308;DHT22;1666;48.898;9.182;2024-01-07T15:17:37;1.20;1.00
3308;DHT22;1666;48.898;9.182;2024-01-07T15:20:09;1.30;1.00
3308;DHT22;1666;48.898;9.182;2024-01-07T15:22:39;1.30;1.00
3308;DHT22;1666;48.898;9.182;2024-01-07T15:25:10;1.30;1.00
3308;DHT22;1666;48.898;9.182;2024-01-07T15:27:40;1.20;1.00
3308;DHT22;1666;48.898;9.182;2024-01-07T15:30:10;1.20;1.00
3308;DHT22;1666;48.898;9.182;2024-01-07T15:32:46;1.30;1.00
3308;DHT22;1666;48.898;9.182;2024-01-07T15:35:16;1.20;1.00
3308;DHT22;1666;48.898;9.182;2024-01-07T15:37:46;1.10;1.00
3308;DHT22;1666;48.898;9.182;2024-01-07T15:40:17;1.10;1.00
3308;DHT22;1666;48.898;9.182;2024-01-07T15:42:47;1.10;1.00
3308;DHT22;1666;48.898;9.182;2024-01-07T15:45:17;1.20;1.00
3308;DHT22;1666;48.898;9.182;2024-01-07T15:47:50;1.10;1.00
3308;DHT22;1666;48.898;9.182;2024-01-07T15:50:21;1.10;1.00
3308;DHT22;1666;48.898;9.182;2024-01-07T15:52:52;1.00;1.00
3308;DHT22;1666;48.898;9.182;2024-01-07T15:55:24;1.10;1.00
3308;DHT22;1666;48.898;9.182;2024-01-07T15:57:54;1.00;1.00
3308;DHT22;1666;48.898;9.182;2024-01-07T16:00:24;1.00;1.00
3308;DHT22;1666;48.898;9.182;2024-01-07T16:02:57;1.00;1.00
3308;DHT22;1666;48.898;9.182;2024-01-07T16:05:28;0.90;1.00
3308;DHT22;1666;48.898;9.182;2024-01-07T16:07:58;0.80;1.00
3308;DHT22;1666;48.898;9.182;2024-01-07T16:10:28;0.80;1.00
3308;DHT22;1666;48.898;9.182;2024-01-07T16:12:58;0.70;1.00
3308;DHT22;1666;48.898;9.182;2024-01-07T16:15:30;0.70;1.00
3308;DHT22;1666;48.898;9.182;2024-01-07T16:18:04;0.70;1.00
3308;DHT22;1666;48.898;9.182;2024-01-07T16:20:34;0.60;1.00
3308;DHT22;1666;48.898;9.182;2024-01-07T16:23:04;0.50;1.00
3308;DHT22;1666;48.898;9.182;2024-01-07T16:25:34;0.50;1.00
3308;DHT22;1666;48.898;9.182;2024-01-07T16:28:04;0.40;1.00
3308;DHT22;1666;48.898;9.182;2024-01-07T16:30:35;0.30;1.00
3308;DHT22;1666;48.898;9.182;2024-01-07T16:33:08;0.40;1.00
3308;DHT22;1666;48.898;9.182;2024-01-07T16:35:38;0.30;1.00
3308;DHT22;1666;48.898;9.182;2024-01-07T16:38:09;0.20;1.00
3308;DHT22;1666;48.898;9.182;2024-01-07T16:40:42;0.10;1.00
3308;DHT22;1666;48.898;9.182;2024-01-07T16:43:13;0.10;1.00
3308;DHT22;1666;48.898;9.182;2024-01-07T16:45:43;0.00;1.00
3308;DHT22;1666;48.898;9.182;2024-01-07T16:48:15;0.00;1.00
3308;DHT22;1666;48.898;9.182;2024-01-07T16:50:48;0.00;1.00
3308;DHT22;1666;48.898;9.182;2024-01-07T16:53:20;-0.10;2.90